createdAt,value
2022-08-08T00:02:04.007Z,18.23
2022-08-08T00:04:49.493Z,17.96
2022-08-08T00:07:31.176Z,17.82
2022-08-08T00:10:13.085Z,17.96
2022-08-08T00:12:56.393Z,17.82
2022-08-08T00:15:56.933Z,17.79
2022-08-08T00:18:36.237Z,18.03
2022-08-08T00:21:12.402Z,17.96
2022-08-08T00:23:54.813Z,17.70
2022-08-08T00:26:32.144Z,17.64
2022-08-08T00:29:12.221Z,17.52
2022-08-08T00:32:14.953Z,17.59
2022-08-08T00:35:18.375Z,17.66
2022-08-08T00:38:17.025Z,17.61
2022-08-08T00:41:54.587Z,17.69
2022-08-08T00:44:51.627Z,17.64
2022-08-08T00:48:05.350Z,17.33
2022-08-08T00:51:38.824Z,17.15
2022-08-08T00:54:37.368Z,17.22
2022-08-08T00:57:36.247Z,17.29
2022-08-08T01:00:16.211Z,17.33
2022-08-08T01:04:01.089Z,17.20
2022-08-08T01:06:42.177Z,17.24
2022-08-08T01:09:41.377Z,17.33
2022-08-08T01:12:55.901Z,17.40
2022-08-08T01:16:02.899Z,17.39
2022-08-08T01:19:13.551Z,17.45
2022-08-08T01:22:15.665Z,17.28
2022-08-08T01:25:26.281Z,17.29
2022-08-08T01:28:45.000Z,17.29
2022-08-08T01:32:14.761Z,17.15
2022-08-08T01:35:17.879Z,16.95
2022-08-08T01:38:28.493Z,17.16
2022-08-08T01:41:09.858Z,17.22
2022-08-08T01:43:53.430Z,17.08
2022-08-08T01:46:53.948Z,17.02
2022-08-08T01:49:45.113Z,16.88
2022-08-08T01:53:05.068Z,16.85
2022-08-08T01:56:29.847Z,17.05
2022-08-08T01:58:39.784Z,17.15
2022-08-08T02:01:55.016Z,17.03
2022-08-08T02:04:38.184Z,16.78
2022-08-08T02:07:25.480Z,16.51
2022-08-08T02:10:12.184Z,16.35
2022-08-08T02:12:56.126Z,16.14
2022-08-08T02:15:38.644Z,16.22
2022-08-08T02:18:18.424Z,16.28
2022-08-08T02:21:13.363Z,16.43
2022-08-08T02:23:56.740Z,16.47
2022-08-08T02:26:40.089Z,16.35
2022-08-08T02:29:31.445Z,15.94
2022-08-08T02:32:40.085Z,15.69
2022-08-08T02:36:05.191Z,15.66
2022-08-08T02:38:50.507Z,15.65
2022-08-08T02:42:03.584Z,15.79
2022-08-08T02:45:18.848Z,15.81
2022-08-08T02:48:27.342Z,15.75
2022-08-08T02:51:46.697Z,15.67
2022-08-08T02:55:02.222Z,15.48
2022-08-08T02:58:02.814Z,15.44
2022-08-08T03:00:58.691Z,15.54
2022-08-08T03:05:04.163Z,15.61
2022-08-08T03:07:57.669Z,15.64
2022-08-08T03:11:13.778Z,15.73
2022-08-08T03:16:00.418Z,15.74
2022-08-08T03:17:40.586Z,15.55
2022-08-08T03:20:11.635Z,15.45
2022-08-08T03:22:56.489Z,15.53
2022-08-08T03:25:35.931Z,15.53
2022-08-08T03:28:18.984Z,15.47
2022-08-08T03:31:22.578Z,15.55
2022-08-08T03:33:55.160Z,15.70
2022-08-08T03:36:33.212Z,15.77
2022-08-08T03:39:15.198Z,15.73
2022-08-08T03:42:26.323Z,15.51
2022-08-08T03:44:44.901Z,15.37
2022-08-08T03:47:25.066Z,15.29
2022-08-08T03:50:01.822Z,15.25
2022-08-08T03:52:45.213Z,15.26
2022-08-08T03:55:56.511Z,15.24
2022-08-08T03:58:34.655Z,15.19
2022-08-08T04:01:25.954Z,15.28
2022-08-08T04:04:02.330Z,15.25
2022-08-08T04:06:42.545Z,15.33
2022-08-08T04:09:17.530Z,15.69
2022-08-08T04:12:00.535Z,15.97
2022-08-08T04:14:58.756Z,16.18
2022-08-08T04:17:58.077Z,16.27
2022-08-08T04:20:28.778Z,16.36
2022-08-08T04:23:03.699Z,16.39
2022-08-08T04:25:40.096Z,16.41
2022-08-08T04:28:36.697Z,16.39
2022-08-08T04:31:06.354Z,16.41
2022-08-08T04:33:42.014Z,16.44
2022-08-08T04:36:14.557Z,16.48
2022-08-08T04:38:47.390Z,16.44
2022-08-08T04:41:21.701Z,16.34
2022-08-08T04:43:57.326Z,16.38
2022-08-08T04:46:31.092Z,16.42
2022-08-08T04:49:03.420Z,16.43
2022-08-08T04:51:55.059Z,16.43
2022-08-08T04:54:41.772Z,16.46
2022-08-08T04:57:14.856Z,16.54
2022-08-08T04:59:47.933Z,16.69
2022-08-08T05:02:28.396Z,16.68
2022-08-08T05:05:01.363Z,16.67
2022-08-08T05:07:37.884Z,16.77
2022-08-08T05:10:15.370Z,16.80
2022-08-08T05:13:01.634Z,16.90
2022-08-08T05:16:54.652Z,16.80
2022-08-08T05:18:27.994Z,16.86
2022-08-08T05:21:00.236Z,17.04
2022-08-08T05:23:41.234Z,17.14
2022-08-08T05:26:19.838Z,17.28
2022-08-08T05:28:57.547Z,17.35
2022-08-08T05:32:04.381Z,17.47
2022-08-08T05:34:41.397Z,17.58
2022-08-08T05:37:19.045Z,17.68
2022-08-08T05:39:55.592Z,17.78
2022-08-08T05:42:41.986Z,17.86
2022-08-08T05:45:30.627Z,17.88
2022-08-08T05:48:09.720Z,17.95
2022-08-08T05:50:42.960Z,18.02
2022-08-08T05:54:24.402Z,18.09
2022-08-08T05:56:21.102Z,18.18
2022-08-08T05:59:04.120Z,18.26
2022-08-08T06:01:56.294Z,18.35
2022-08-08T06:04:33.212Z,18.44
2022-08-08T06:07:11.153Z,18.49
2022-08-08T06:10:01.282Z,18.53
2022-08-08T06:12:36.512Z,18.61
2022-08-08T06:15:13.247Z,18.67
2022-08-08T06:18:20.409Z,18.75
2022-08-08T06:20:43.604Z,18.77
2022-08-08T06:23:16.282Z,18.87
2022-08-08T06:26:38.518Z,18.95
2022-08-08T06:29:02.247Z,19.02
2022-08-08T06:31:52.855Z,19.07
2022-08-08T06:34:36.786Z,19.16
2022-08-08T06:37:37.065Z,19.21
2022-08-08T06:40:10.453Z,19.09
2022-08-08T06:42:55.222Z,19.12
2022-08-08T06:45:30.371Z,19.28
2022-08-08T06:48:04.489Z,19.36
2022-08-08T06:50:40.027Z,19.46
2022-08-08T06:53:17.176Z,19.56
2022-08-08T06:56:02.204Z,19.65
2022-08-08T06:58:39.945Z,19.74
2022-08-08T07:02:18.142Z,19.83
2022-08-08T07:04:39.478Z,19.90
2022-08-08T07:07:13.906Z,19.95
2022-08-08T07:09:59.815Z,20.06
2022-08-08T07:12:42.980Z,20.14
2022-08-08T07:15:31.798Z,20.22
2022-08-08T07:18:36.725Z,20.31
2022-08-08T07:21:18.638Z,20.27
2022-08-08T07:24:03.013Z,20.37
2022-08-08T07:26:50.867Z,20.43
2022-08-08T07:29:59.030Z,20.57
2022-08-08T07:32:22.273Z,20.68
2022-08-08T07:35:02.825Z,20.71
2022-08-08T07:38:04.695Z,20.77
2022-08-08T07:40:47.213Z,20.84
2022-08-08T07:43:23.139Z,20.95
2022-08-08T07:46:24.125Z,21.06
2022-08-08T07:49:02.014Z,21.13
2022-08-08T07:51:44.931Z,21.18
2022-08-08T07:54:33.192Z,21.21
2022-08-08T07:57:20.043Z,21.24
2022-08-08T08:00:04.712Z,21.20
2022-08-08T08:02:49.681Z,21.23
2022-08-08T08:05:33.519Z,21.28
2022-08-08T08:08:14.222Z,21.42
2022-08-08T08:10:50.989Z,21.48
2022-08-08T08:13:42.579Z,21.51
2022-08-08T08:16:32.161Z,21.60
2022-08-08T08:19:08.231Z,21.78
2022-08-08T08:21:56.879Z,21.92
2022-08-08T08:24:43.081Z,21.94
2022-08-08T08:27:19.889Z,21.99
2022-08-08T08:29:53.339Z,22.06
2022-08-08T08:32:35.969Z,22.20
2022-08-08T08:35:15.117Z,22.29
2022-08-08T08:38:13.242Z,22.42
2022-08-08T08:40:41.240Z,22.56
2022-08-08T08:43:17.109Z,22.66
2022-08-08T08:45:57.113Z,22.75
2022-08-08T08:48:30.321Z,22.88
2022-08-08T08:51:05.424Z,22.91
2022-08-08T08:53:56.073Z,22.99
2022-08-08T08:56:36.069Z,23.18
2022-08-08T08:59:15.344Z,23.20
2022-08-08T09:01:59.516Z,23.21
2022-08-08T09:04:44.412Z,23.25
2022-08-08T09:07:39.555Z,23.27
2022-08-08T09:10:18.129Z,23.33
2022-08-08T09:12:52.553Z,23.40
2022-08-08T09:15:41.073Z,23.41
2022-08-08T09:18:18.141Z,23.56
2022-08-08T09:21:56.002Z,23.71
2022-08-08T09:23:46.056Z,23.85
2022-08-08T09:26:32.275Z,23.73
2022-08-08T09:29:09.411Z,23.57
2022-08-08T09:31:56.694Z,23.61
2022-08-08T09:34:37.721Z,23.58
2022-08-08T09:37:57.906Z,23.54
2022-08-08T09:40:12.189Z,23.51
2022-08-08T09:42:51.610Z,23.52
2022-08-08T09:46:00.940Z,23.45
2022-08-08T09:48:28.978Z,23.38
2022-08-08T09:51:09.378Z,23.44
2022-08-08T09:53:59.659Z,23.54
2022-08-08T09:56:44.542Z,23.64
2022-08-08T10:00:02.318Z,23.76
2022-08-08T10:02:24.772Z,23.80
2022-08-08T10:05:14.768Z,23.77
2022-08-08T10:08:01.138Z,23.64
2022-08-08T10:10:36.749Z,23.62
2022-08-08T10:13:25.948Z,23.61
2022-08-08T10:16:05.187Z,23.50
2022-08-08T10:18:39.685Z,23.54
2022-08-08T10:21:22.668Z,23.67
2022-08-08T10:24:11.883Z,23.67
2022-08-08T10:27:02.633Z,23.61
2022-08-08T10:29:58.142Z,23.94
2022-08-08T10:32:48.655Z,24.29
2022-08-08T10:36:08.258Z,24.32
2022-08-08T10:38:18.535Z,24.71
2022-08-08T10:40:55.067Z,24.93
2022-08-08T10:43:38.169Z,25.18
2022-08-08T10:46:29.393Z,25.52
2022-08-08T10:49:02.703Z,25.80
2022-08-08T10:51:40.969Z,25.77
2022-08-08T10:54:28.387Z,26.13
2022-08-08T10:57:03.954Z,26.23
2022-08-08T10:59:39.366Z,26.55
2022-08-08T11:02:14.100Z,26.40
2022-08-08T11:04:53.423Z,25.90
2022-08-08T11:08:29.931Z,25.99
2022-08-08T11:10:28.516Z,25.92
2022-08-08T11:13:27.713Z,25.76
2022-08-08T11:16:00.600Z,25.69
2022-08-08T11:18:40.254Z,25.72
2022-08-08T11:21:19.731Z,25.68
2022-08-08T11:24:01.673Z,25.52
2022-08-08T11:26:56.501Z,25.36
2022-08-08T11:29:51.367Z,25.18
2022-08-08T11:32:29.501Z,25.17
2022-08-08T11:35:23.176Z,25.24
2022-08-08T11:38:39.602Z,25.41
2022-08-08T11:40:52.513Z,25.29
2022-08-08T11:43:38.516Z,25.18
2022-08-08T11:46:13.766Z,25.27
2022-08-08T11:48:51.526Z,25.36
2022-08-08T11:51:30.634Z,25.33
2022-08-08T11:54:31.185Z,25.23
2022-08-08T11:57:17.347Z,25.33
2022-08-08T12:00:02.870Z,25.24
2022-08-08T12:02:54.468Z,25.43
2022-08-08T12:05:36.877Z,25.87
2022-08-08T12:08:10.282Z,26.06
2022-08-08T12:10:51.239Z,25.74
2022-08-08T12:13:37.934Z,25.53
2022-08-08T12:16:31.671Z,25.77
2022-08-08T12:19:13.654Z,26.17
2022-08-08T12:22:00.369Z,26.11
2022-08-08T12:24:54.107Z,26.06
2022-08-08T12:27:45.089Z,26.05
2022-08-08T12:30:21.620Z,25.94
2022-08-08T12:32:59.975Z,26.25
2022-08-08T12:35:41.353Z,26.68
2022-08-08T12:38:31.278Z,26.68
2022-08-08T12:41:18.324Z,26.53
2022-08-08T12:44:10.073Z,26.24
2022-08-08T12:46:42.391Z,26.38
2022-08-08T12:49:43.101Z,26.42
2022-08-08T12:52:28.967Z,26.39
2022-08-08T12:55:14.316Z,26.24
2022-08-08T12:57:56.097Z,25.91
2022-08-08T13:00:34.156Z,25.99
2022-08-08T13:03:11.036Z,25.98
2022-08-08T13:06:05.634Z,25.88
2022-08-08T13:08:53.262Z,25.73
2022-08-08T13:12:26.819Z,25.77
2022-08-08T13:14:39.206Z,25.87
2022-08-08T13:18:07.607Z,25.74
2022-08-08T13:20:21.757Z,25.77
2022-08-08T13:23:08.111Z,25.83
2022-08-08T13:25:50.079Z,25.81
2022-08-08T13:28:34.385Z,25.84
2022-08-08T13:31:12.009Z,25.84
2022-08-08T13:33:50.469Z,25.65
2022-08-08T13:36:25.937Z,25.40
2022-08-08T13:38:59.314Z,25.48
2022-08-08T13:41:38.876Z,25.32
2022-08-08T13:44:12.417Z,25.51
2022-08-08T13:46:56.249Z,25.68
2022-08-08T13:50:35.590Z,25.79
2022-08-08T13:52:37.523Z,25.77
2022-08-08T13:55:10.859Z,25.85
2022-08-08T13:58:07.020Z,25.88
2022-08-08T14:00:45.056Z,25.98
2022-08-08T14:03:53.366Z,25.99
2022-08-08T14:06:33.989Z,26.09
2022-08-08T14:09:24.797Z,26.19
2022-08-08T14:12:05.479Z,26.18
2022-08-08T14:14:45.104Z,26.23
2022-08-08T14:17:22.630Z,26.18
2022-08-08T14:20:15.502Z,26.01
2022-08-08T14:23:21.451Z,26.13
2022-08-08T14:26:11.105Z,26.10
2022-08-08T14:28:53.245Z,26.11
2022-08-08T14:32:06.207Z,26.13
2022-08-08T14:34:19.466Z,26.13
2022-08-08T14:36:55.414Z,25.97
2022-08-08T14:39:48.793Z,25.88
2022-08-08T14:42:31.092Z,25.94
2022-08-08T14:45:10.136Z,25.99
2022-08-08T14:47:52.422Z,25.95
2022-08-08T14:50:38.670Z,25.96
2022-08-08T14:53:15.265Z,25.97
2022-08-08T14:55:47.146Z,26.00
2022-08-08T14:58:33.701Z,26.00
2022-08-08T15:01:07.387Z,26.04
2022-08-08T15:04:08.470Z,26.05
2022-08-08T15:06:42.531Z,26.02
2022-08-08T15:09:18.152Z,25.72
2022-08-08T15:11:52.979Z,25.74
2022-08-08T15:14:26.787Z,25.81
2022-08-08T15:16:58.647Z,25.91
2022-08-08T15:19:34.801Z,25.95
2022-08-08T15:22:06.565Z,25.80
2022-08-08T15:24:38.540Z,25.72
2022-08-08T15:27:20.142Z,25.84
2022-08-08T15:30:03.138Z,25.81
2022-08-08T15:32:36.800Z,25.82
2022-08-08T15:35:12.067Z,25.82
2022-08-08T15:37:48.002Z,25.80
2022-08-08T15:40:19.659Z,25.86
2022-08-08T15:42:51.286Z,25.81
2022-08-08T15:45:23.193Z,25.69
2022-08-08T15:48:11.045Z,25.76
2022-08-08T15:51:06.122Z,25.81
2022-08-08T15:53:49.375Z,25.72
2022-08-08T15:56:22.864Z,25.77
2022-08-08T15:58:54.499Z,25.80
2022-08-08T16:01:40.620Z,25.76
2022-08-08T16:04:18.177Z,25.66
2022-08-08T16:06:52.975Z,25.61
2022-08-08T16:13:20.624Z,25.55
2022-08-08T16:13:27.361Z,25.53
2022-08-08T16:15:12.514Z,25.45
2022-08-08T16:18:06.583Z,25.44
2022-08-08T16:20:40.461Z,25.47
2022-08-08T16:23:14.463Z,25.40
2022-08-08T16:25:54.572Z,25.39
2022-08-08T16:28:35.128Z,25.41
2022-08-08T16:31:09.442Z,25.39
2022-08-08T16:33:41.357Z,25.30
2022-08-08T16:36:33.851Z,25.27
2022-08-08T16:39:09.641Z,25.19
2022-08-08T16:41:51.076Z,25.14
2022-08-08T16:44:28.135Z,25.16
2022-08-08T16:47:42.175Z,25.17
2022-08-08T16:50:16.720Z,25.10
2022-08-08T16:55:22.737Z,25.07
2022-08-08T16:55:55.215Z,25.07
2022-08-08T16:58:34.430Z,25.03
2022-08-08T17:01:09.207Z,25.05
2022-08-08T17:03:58.670Z,25.02
2022-08-08T17:06:39.770Z,25.00
2022-08-08T17:09:19.586Z,24.98
2022-08-08T17:12:00.700Z,25.02
2022-08-08T17:14:34.620Z,25.03
2022-08-08T17:17:23.002Z,25.00
2022-08-08T17:20:00.148Z,24.99
2022-08-08T17:22:42.330Z,24.96
2022-08-08T17:25:14.993Z,24.98
2022-08-08T17:27:49.672Z,24.95
2022-08-08T17:30:29.138Z,24.92
2022-08-08T17:34:49.089Z,24.92
2022-08-08T17:36:12.375Z,24.88
2022-08-08T17:38:45.157Z,24.85
2022-08-08T17:41:16.846Z,24.82
2022-08-08T17:44:00.752Z,24.80
2022-08-08T17:46:40.272Z,24.75
2022-08-08T17:49:16.508Z,24.70
2022-08-08T17:51:56.484Z,24.69
2022-08-08T17:54:29.164Z,24.66
2022-08-08T17:57:01.095Z,24.63
2022-08-08T17:59:36.063Z,24.61
2022-08-08T18:02:16.124Z,24.56
2022-08-08T18:04:51.245Z,24.58
2022-08-08T18:08:03.330Z,24.56
2022-08-08T18:10:15.505Z,24.53
2022-08-08T18:12:47.107Z,24.48
2022-08-08T18:15:19.484Z,24.47
2022-08-08T18:18:05.264Z,24.44
2022-08-08T18:20:59.731Z,24.45
2022-08-08T18:23:31.817Z,24.44
2022-08-08T18:26:04.190Z,24.42
2022-08-08T18:28:54.284Z,24.41
2022-08-08T18:31:27.841Z,24.39
2022-08-08T18:34:25.685Z,24.36
2022-08-08T18:36:52.406Z,24.30
2022-08-08T18:39:28.233Z,24.28
2022-08-08T18:42:03.039Z,24.24
2022-08-08T18:44:36.707Z,24.21
2022-08-08T18:47:09.177Z,24.16
2022-08-08T18:49:58.454Z,24.14
2022-08-08T18:52:34.806Z,24.11
2022-08-08T18:55:11.599Z,24.07
2022-08-08T18:57:45.871Z,24.08
2022-08-08T19:00:21.450Z,24.06
2022-08-08T19:03:04.171Z,24.04
2022-08-08T19:05:46.480Z,24.01
2022-08-08T19:08:24.732Z,23.99
2022-08-08T19:11:02.285Z,23.97
2022-08-08T19:13:52.949Z,23.97
2022-08-08T19:16:32.176Z,23.92
2022-08-08T19:19:09.870Z,23.86
2022-08-08T19:21:48.839Z,23.88
2022-08-08T19:24:42.148Z,23.85
2022-08-08T19:27:14.926Z,23.85
2022-08-08T19:29:47.337Z,23.83
2022-08-08T19:32:23.200Z,23.83
2022-08-08T19:34:57.309Z,23.83
2022-08-08T19:37:43.543Z,23.79
2022-08-08T19:40:21.942Z,23.78
2022-08-08T19:43:04.607Z,23.80
2022-08-08T19:45:58.414Z,23.78
2022-08-08T19:48:33.595Z,23.71
2022-08-08T19:51:06.790Z,23.73
2022-08-08T19:53:51.883Z,23.72
2022-08-08T19:56:40.078Z,23.71
2022-08-08T19:59:13.685Z,23.71
2022-08-08T20:02:02.176Z,23.67
2022-08-08T20:04:37.525Z,23.65
2022-08-08T20:08:28.247Z,23.65
2022-08-08T20:10:03.367Z,23.65
2022-08-08T20:12:36.962Z,23.64
2022-08-08T20:15:16.275Z,23.63
2022-08-08T20:17:50.040Z,23.57
2022-08-08T20:20:25.337Z,23.51
2022-08-08T20:22:58.103Z,23.43
2022-08-08T20:25:31.501Z,23.40
2022-08-08T20:28:07.917Z,23.20
2022-08-08T20:30:55.863Z,23.09
2022-08-08T20:34:27.448Z,23.16
2022-08-08T20:36:24.916Z,23.09
2022-08-08T20:38:59.557Z,23.04
2022-08-08T20:41:33.843Z,22.85
2022-08-08T20:44:08.065Z,22.81
2022-08-08T20:46:40.963Z,23.02
2022-08-08T20:49:21.941Z,22.97
2022-08-08T20:51:53.884Z,23.01
2022-08-08T20:54:28.426Z,23.04
2022-08-08T20:57:05.798Z,23.04
2022-08-08T20:59:50.411Z,23.04
2022-08-08T21:02:26.073Z,23.03
2022-08-08T21:05:00.603Z,23.00
2022-08-08T21:08:07.827Z,22.97
2022-08-08T21:10:28.317Z,22.96
2022-08-08T21:13:01.724Z,22.96
2022-08-08T21:16:05.970Z,22.94
2022-08-08T21:18:29.234Z,22.96
2022-08-08T21:21:19.790Z,22.93
2022-08-08T21:24:19.237Z,22.84
2022-08-08T21:27:00.413Z,22.84
2022-08-08T21:30:05.581Z,22.79
2022-08-08T21:32:26.023Z,22.59
2022-08-08T21:36:17.423Z,22.46
2022-08-08T21:37:53.824Z,22.45
2022-08-08T21:40:31.504Z,22.53
2022-08-08T21:43:04.052Z,22.62
2022-08-08T21:47:59.374Z,22.66
2022-08-08T21:48:41.541Z,22.62
2022-08-08T21:51:15.320Z,22.64
2022-08-08T21:54:34.917Z,22.58
2022-08-08T21:56:43.597Z,22.50
2022-08-08T21:59:20.867Z,22.48
2022-08-08T22:01:55.614Z,22.48
2022-08-08T22:04:30.183Z,22.45
2022-08-08T22:07:02.678Z,22.39
2022-08-08T22:09:37.654Z,22.34
2022-08-08T22:12:16.771Z,22.36
2022-08-08T22:14:52.433Z,22.28
2022-08-08T22:17:25.250Z,22.20
2022-08-08T22:20:10.641Z,22.22
2022-08-08T22:22:44.208Z,22.18
2022-08-08T22:25:25.847Z,22.23
2022-08-08T22:28:04.352Z,21.99
2022-08-08T22:30:53.175Z,22.06
2022-08-08T22:34:12.502Z,21.99
2022-08-08T22:36:34.236Z,22.08
2022-08-08T22:39:11.867Z,22.04
2022-08-08T22:41:54.263Z,21.97
2022-08-08T22:44:30.656Z,21.91
2022-08-08T22:47:17.785Z,21.84
2022-08-08T22:49:53.832Z,21.75
2022-08-08T22:52:33.769Z,21.59
2022-08-08T22:55:09.709Z,21.58
2022-08-08T22:57:44.152Z,21.46
2022-08-08T23:00:21.342Z,21.33
2022-08-08T23:02:54.807Z,21.35
2022-08-08T23:05:30.883Z,21.42
2022-08-08T23:08:18.024Z,21.31
2022-08-08T23:10:52.949Z,21.20
2022-08-08T23:13:28.112Z,21.14
2022-08-08T23:16:38.868Z,21.06
2022-08-08T23:19:09.018Z,21.00
2022-08-08T23:21:43.049Z,21.02
2022-08-08T23:24:22.313Z,21.10
2022-08-08T23:26:57.188Z,21.16
2022-08-08T23:29:31.208Z,21.17
2022-08-08T23:32:05.523Z,21.17
2022-08-08T23:34:39.754Z,21.23
2022-08-08T23:38:02.307Z,21.14
2022-08-08T23:40:25.986Z,21.13
2022-08-08T23:43:04.270Z,21.05
2022-08-08T23:49:00.920Z,20.95
2022-08-08T23:49:02.866Z,20.89
2022-08-08T23:51:41.857Z,20.83
2022-08-08T23:54:43.130Z,20.93
2022-08-08T23:57:25.359Z,21.00
